Time;durP1;ratioP1;P1;durP2;ratioP2;P2;SDS_P1;SDS_P2;PMS_P1;PMS_P2;Temp;Humidity;BMP_temperature;BMP_pressure;BME280_temperature;BME280_humidity;BME280_pressure;Samples;Min_cycle;Max_cycle;Signal;HPM_P1;HPM_P2
2023/06/03 00:00:15;;;;;;;2.88;1.60;;;;;;;8.72;56.36;102061.72;5082196;28;20057;-57
2023/06/03 00:02:42;;;;;;;4.95;1.80;;;;;;;8.79;56.39;102058.06;5083747;28;20058;-56
2023/06/03 00:05:09;;;;;;;6.40;1.90;;;;;;;8.82;56.90;102063.31;5073150;28;20292;-57
2023/06/03 00:07:35;;;;;;;5.18;2.17;;;;;;;8.71;56.75;102059.97;5072515;28;20078;-56
2023/06/03 00:10:03;;;;;;;3.05;1.50;;;;;;;8.59;56.66;102051.38;5073301;28;20052;-57
2023/06/03 00:12:30;;;;;;;5.20;2.35;;;;;;;8.63;57.25;102058.34;5071872;28;20541;-57
2023/06/03 00:14:56;;;;;;;5.25;2.35;;;;;;;8.57;57.40;102058.44;5077269;28;20535;-57
2023/06/03 00:17:26;;;;;;;4.03;1.90;;;;;;;8.69;56.83;102059.13;5072205;28;20044;-57
2023/06/03 00:19:54;;;;;;;4.18;1.88;;;;;;;8.59;57.07;102053.16;5085806;28;20037;-56
2023/06/03 00:22:24;;;;;;;3.97;1.83;;;;;;;8.55;57.09;102054.97;5072299;28;20048;-57
2023/06/03 00:24:50;;;;;;;3.22;1.90;;;;;;;8.46;57.00;102049.84;5086239;28;20131;-57
2023/06/03 00:27:17;;;;;;;2.53;1.67;;;;;;;8.53;56.49;102054.09;5076056;28;20062;-57
2023/06/03 00:29:43;;;;;;;3.08;1.55;;;;;;;8.51;56.63;102053.25;5091368;28;20044;-57
2023/06/03 00:32:10;;;;;;;4.00;1.80;;;;;;;8.39;57.32;102053.44;5071598;28;20506;-57
2023/06/03 00:34:36;;;;;;;5.25;2.17;;;;;;;8.26;57.33;102058.88;5071493;28;20045;-57
2023/06/03 00:37:03;;;;;;;3.58;1.42;;;;;;;8.25;57.63;102049.25;5074560;28;20500;-57
2023/06/03 00:39:30;;;;;;;5.13;1.90;;;;;;;8.17;58.15;102053.75;5081945;28;20052;-56
2023/06/03 00:41:58;;;;;;;5.70;1.70;;;;;;;8.05;57.82;102059.22;5069659;28;20128;-57
2023/06/03 00:44:24;;;;;;;4.25;1.88;;;;;;;7.99;58.56;102056.66;5071328;28;20048;-57
2023/06/03 00:46:51;;;;;;;17.17;2.53;;;;;;;7.97;58.27;102055.81;5070984;28;20467;-57
2023/06/03 00:49:18;;;;;;;10.07;1.83;;;;;;;7.89;58.85;102056.81;5070469;28;20058;-58
2023/06/03 00:51:46;;;;;;;3.80;1.73;;;;;;;7.86;59.10;102054.22;5070982;28;20480;-57
2023/06/03 00:54:14;;;;;;;4.40;2.53;;;;;;;7.94;58.65;102050.59;5071343;28;20048;-58
2023/06/03 00:56:44;;;;;;;5.32;1.85;;;;;;;7.97;58.69;102055.81;5071611;28;20041;-57
2023/06/03 00:59:14;;;;;;;3.88;1.77;;;;;;;7.93;58.68;102062.00;5070185;28;20041;-58
2023/06/03 01:01:44;;;;;;;5.88;2.38;;;;;;;7.89;58.87;102059.44;5066378;28;20102;-56
2023/06/03 01:04:16;;;;;;;3.03;1.70;;;;;;;7.85;59.18;102052.47;5072785;28;20059;-56
2023/06/03 01:07:15;;;;;;;3.60;1.73;;;;;;;7.86;59.17;102056.84;5070474;28;20048;-57
2023/06/03 01:09:55;;;;;;;4.05;2.05;;;;;;;7.87;59.32;102050.66;5071981;28;20125;-57
2023/06/03 01:12:30;;;;;;;8.10;1.50;;;;;;;7.88;59.25;102068.22;5079312;28;20040;-56
2023/06/03 01:15:04;;;;;;;3.67;2.35;;;;;;;7.83;59.67;102056.88;5077937;28;20131;-57
2023/06/03 01:17:35;;;;;;;3.70;1.55;;;;;;;7.85;59.48;102068.25;5069530;28;20056;-56
2023/06/03 01:20:09;;;;;;;5.10;2.22;;;;;;;7.80;60.03;102072.72;5071564;28;20044;-57
2023/06/03 01:22:41;;;;;;;3.80;1.88;;;;;;;7.74;59.82;102070.16;5071341;28;20048;-57
2023/06/03 01:25:10;;;;;;;4.07;1.77;;;;;;;7.72;60.21;102064.03;5069872;28;20040;-57
2023/06/03 01:27:37;;;;;;;3.00;1.50;;;;;;;7.68;59.87;102075.50;5071399;28;20147;-57
2023/06/03 01:30:10;;;;;;;4.95;1.90;;;;;;;7.66;60.45;102067.59;5070738;28;20679;-56
2023/06/03 01:32:42;;;;;;;6.60;1.75;;;;;;;7.59;60.30;102071.22;5071598;28;20049;-56
2023/06/03 01:35:10;;;;;;;6.93;1.67;;;;;;;7.56;60.68;102070.38;5069496;28;20098;-58
2023/06/03 01:37:37;;;;;;;4.10;1.38;;;;;;;7.57;60.48;102066.84;5071387;28;20540;-57
2023/06/03 01:40:05;;;;;;;3.30;1.70;;;;;;;7.48;60.86;102063.44;5068510;28;20060;-58
2023/06/03 01:42:32;;;;;;;7.72;1.85;;;;;;;7.44;60.75;102067.00;5053688;28;20087;-56
2023/06/03 01:44:59;;;;;;;3.42;1.60;;;;;;;7.37;60.99;102070.59;5070533;28;20453;-57
2023/06/03 01:47:26;;;;;;;6.50;2.50;;;;;;;7.35;61.20;102067.97;5071174;28;20052;-57
2023/06/03 01:49:53;;;;;;;3.63;1.48;;;;;;;7.28;60.76;102070.72;5070903;28;20048;-57
2023/06/03 01:52:20;;;;;;;6.00;1.70;;;;;;;7.28;61.12;102065.44;5070470;28;20079;-56
2023/06/03 01:54:46;;;;;;;4.82;1.50;;;;;;;7.27;60.67;102068.94;5070872;28;20048;-57
2023/06/03 01:57:13;;;;;;;10.52;2.15;;;;;;;7.24;61.24;102079.50;5071060;28;20081;-57
2023/06/03 01:59:40;;;;;;;4.85;1.67;;;;;;;7.23;60.77;102075.16;5070892;28;20215;-56
2023/06/03 02:02:06;;;;;;;3.65;1.50;;;;;;;7.21;60.63;102074.28;5069179;28;20059;-57
2023/06/03 02:04:33;;;;;;;4.57;1.58;;;;;;;7.12;60.99;102078.72;5069816;28;20064;-56
2023/06/03 02:07:00;;;;;;;7.47;2.13;;;;;;;7.03;61.06;102073.59;5070435;28;20047;-56
2023/06/03 02:09:28;;;;;;;3.63;2.00;;;;;;;6.99;60.88;102085.00;5069659;28;20049;-57
2023/06/03 02:11:58;;;;;;;3.40;1.65;;;;;;;6.98;61.26;102078.03;5070541;28;20044;-56
2023/06/03 02:14:26;;;;;;;4.50;1.67;;;;;;;7.08;61.35;102073.56;5071206;28;20072;-56
2023/06/03 02:16:55;;;;;;;8.52;1.95;;;;;;;7.13;61.47;102077.84;5071848;28;20098;-56
2023/06/03 02:19:25;;;;;;;3.65;1.40;;;;;;;7.06;61.21;102064.78;5074104;28;20060;-57
2023/06/03 02:21:54;;;;;;;3.97;1.75;;;;;;;7.04;61.48;102067.44;5073492;28;20106;-56
2023/06/03 02:24:22;;;;;;;4.70;1.67;;;;;;;7.01;61.53;102067.44;5074344;28;20056;-57
2023/06/03 02:26:52;;;;;;;3.40;1.50;;;;;;;7.00;61.56;102076.25;5073769;28;20131;-56
2023/06/03 02:29:22;;;;;;;4.53;1.52;;;;;;;6.91;62.31;102073.69;5073538;28;20420;-56
2023/06/03 02:31:50;;;;;;;2.83;1.63;;;;;;;6.87;62.22;102072.00;5072482;28;20048;-57
2023/06/03 02:34:16;;;;;;;3.78;1.60;;;;;;;6.83;62.93;102078.16;5073857;28;20063;-56
2023/06/03 02:36:43;;;;;;;4.03;1.35;;;;;;;6.85;62.44;102071.13;5071711;28;20052;-58
2023/06/03 02:39:11;;;;;;;6.10;1.80;;;;;;;6.75;62.76;102071.22;5075753;28;20056;-56
2023/06/03 02:41:40;;;;;;;5.22;1.80;;;;;;;6.77;63.09;102064.19;5074208;28;20040;-56
2023/06/03 02:44:10;;;;;;;;;;;;;;;6.71;63.15;102069.47;5073489;28;20086;-56
2023/06/03 02:46:36;;;;;;;4.63;1.98;;;;;;;6.73;63.14;102067.72;5069097;28;19927;-56
2023/06/03 02:49:05;;;;;;;4.03;1.55;;;;;;;6.76;62.91;102065.06;5072133;28;20044;-57
2023/06/03 02:51:32;;;;;;;2.90;1.70;;;;;;;6.70;63.58;102073.00;5073652;28;20239;-56
2023/06/03 02:53:58;;;;;;;9.38;1.95;;;;;;;6.76;63.01;102072.06;5069722;28;20131;-56
2023/06/03 02:56:25;;;;;;;3.53;1.30;;;;;;;6.70;63.45;102069.50;5072113;28;20083;-58
2023/06/03 02:58:52;;;;;;;7.85;1.70;;;;;;;6.64;63.48;102073.06;5070686;28;20048;-56
2023/06/03 03:01:19;;;;;;;3.25;1.70;;;;;;;6.67;63.62;102066.88;5072900;28;20044;-58
2023/06/03 03:03:46;;;;;;;5.70;1.77;;;;;;;6.64;62.88;102065.19;5072933;28;20086;-57
2023/06/03 03:06:19;;;;;;;4.75;1.80;;;;;;;6.72;62.72;102065.97;5073802;28;20052;-58
2023/06/03 03:08:50;;;;;;;4.60;1.90;;;;;;;6.74;63.03;102074.72;5069208;28;20049;-57
2023/06/03 03:11:17;;;;;;;4.93;1.45;;;;;;;6.71;63.03;102072.13;5080059;28;20044;-57
2023/06/03 03:13:45;;;;;;;4.93;1.42;;;;;;;6.70;62.38;102067.75;5084741;28;20432;-57
2023/06/03 03:16:13;;;;;;;5.00;2.47;;;;;;;6.65;62.86;102066.91;5066095;28;20061;-57
2023/06/03 03:18:40;;;;;;;6.68;1.70;;;;;;;6.63;63.34;102065.19;5070407;28;20056;-57
2023/06/03 03:21:06;;;;;;;2.92;1.63;;;;;;;6.65;63.02;102080.03;5064854;28;20071;-56
2023/06/03 03:23:33;;;;;;;2.33;1.48;;;;;;;6.63;63.06;102073.94;5069747;28;20139;-56
2023/06/03 03:26:01;;;;;;;2.97;1.50;;;;;;;6.60;63.16;102077.47;5066208;28;20492;-57
2023/06/03 03:28:28;;;;;;;2.28;1.65;;;;;;;6.57;63.10;102085.38;5060647;28;20076;-57
2023/06/03 03:30:55;;;;;;;4.35;1.70;;;;;;;6.60;63.12;102082.72;5069057;28;20037;-57
2023/06/03 03:33:22;;;;;;;5.53;1.88;;;;;;;6.67;63.15;102083.56;5070553;28;20135;-57
2023/06/03 03:35:49;;;;;;;5.88;1.55;;;;;;;6.74;62.29;102085.22;5065419;28;20165;-57
2023/06/03 03:38:17;;;;;;;3.13;1.40;;;;;;;6.77;62.11;102086.97;5063454;28;20084;-57
2023/06/03 03:40:44;;;;;;;5.55;1.65;;;;;;;6.80;62.42;102087.81;5061129;28;20040;-57
2023/06/03 03:43:16;;;;;;;5.32;1.50;;;;;;;6.86;62.21;102093.91;5060806;28;20131;-57
2023/06/03 03:45:43;;;;;;;3.25;1.77;;;;;;;6.90;62.39;102080.72;5059361;28;20067;-56
2023/06/03 03:48:14;;;;;;;11.85;3.17;;;;;;;6.99;61.90;102090.25;5065219;28;20045;-57
2023/06/03 03:50:45;;;;;;;3.53;1.40;;;;;;;7.07;61.71;102096.31;5068608;28;20131;-56
2023/06/03 03:53:16;;;;;;;;;;;;;;;7.11;61.04;102095.41;5061233;28;20109;-57
2023/06/03 03:55:51;;;;;;;6.20;1.67;;;;;;;7.16;61.18;102095.38;5061835;28;19920;-57
2023/06/03 03:58:22;;;;;;;7.32;1.38;;;;;;;7.28;60.91;102097.00;5078147;28;20080;-57
2023/06/03 04:00:50;;;;;;;3.33;1.55;;;;;;;7.30;61.21;102093.44;5066224;28;20044;-57
2023/06/03 04:03:19;;;;;;;3.78;1.25;;;;;;;7.38;60.37;102098.66;5067603;28;20833;-57
2023/06/03 04:05:50;;;;;;;4.65;1.42;;;;;;;7.46;60.51;102091.53;5062949;28;20048;-57
2023/06/03 04:08:45;;;;;;;4.47;1.45;;;;;;;7.57;59.72;102098.44;5066006;28;20072;-57
2023/06/03 04:11:27;;;;;;;2.92;1.20;;;;;;;7.71;58.00;102096.50;5064386;28;20135;-57
2023/06/03 04:13:55;;;;;;;2.65;1.42;;;;;;;7.68;57.95;102101.81;5063427;28;20048;-57
2023/06/03 04:16:47;;;;;;;4.20;1.48;;;;;;;7.85;57.26;102099.84;5064827;28;20420;-57
2023/06/03 04:19:17;;;;;;;4.97;1.17;;;;;;;7.87;57.35;102102.47;5065350;28;20044;-57
2023/06/03 04:21:44;;;;;;;2.67;1.10;;;;;;;7.95;56.76;102097.09;5064388;28;20044;-57
2023/06/03 04:24:11;;;;;;;4.07;1.10;;;;;;;8.00;56.66;102104.03;5044724;28;20045;-57
2023/06/03 04:26:38;;;;;;;3.13;1.50;;;;;;;8.09;56.03;102105.66;5057927;28;20064;-57
2023/06/03 04:29:05;;;;;;;5.95;1.23;;;;;;;8.20;55.36;102110.78;5063970;28;20056;-57
2023/06/03 04:31:32;;;;;;;3.03;1.60;;;;;;;8.30;55.35;102106.25;5063251;28;20045;-57
2023/06/03 04:33:59;;;;;;;5.57;1.38;;;;;;;8.37;55.46;102102.63;5060163;28;20139;-57
2023/06/03 04:36:26;;;;;;;2.85;1.23;;;;;;;8.42;54.15;102106.09;5062800;28;20076;-57
2023/06/03 04:38:52;;;;;;;12.30;1.38;;;;;;;8.48;54.01;102105.16;5061885;28;20078;-57
2023/06/03 04:41:19;;;;;;;9.73;1.08;;;;;;;8.61;53.03;102107.59;5063321;28;20053;-57
2023/06/03 04:43:46;;;;;;;5.50;1.45;;;;;;;8.66;52.90;102104.00;5061349;28;20048;-57
2023/06/03 04:46:14;;;;;;;3.05;1.42;;;;;;;8.72;52.25;102098.63;5063096;28;20060;-56
2023/06/03 04:48:41;;;;;;;2.65;1.35;;;;;;;8.79;51.84;102110.81;5063920;28;20167;-57
2023/06/03 04:51:09;;;;;;;2.20;1.23;;;;;;;8.83;52.47;102104.59;5065386;28;20067;-57
2023/06/03 04:53:36;;;;;;;2.50;1.10;;;;;;;8.84;52.65;102108.09;5065348;28;20048;-57
2023/06/03 04:56:04;;;;;;;2.95;1.30;;;;;;;8.88;51.92;102109.81;5057988;28;20084;-57
2023/06/03 04:58:31;;;;;;;2.95;1.30;;;;;;;8.95;51.33;102107.00;5062718;28;20590;-57
2023/06/03 05:00:58;;;;;;;3.45;1.23;;;;;;;9.04;51.52;102111.28;5064230;28;20044;-57
2023/06/03 05:03:25;;;;;;;3.95;1.73;;;;;;;9.08;51.32;102106.81;5063031;28;20076;-57
2023/06/03 05:05:52;;;;;;;5.47;1.58;;;;;;;9.14;51.02;102104.94;5059130;28;20059;-57
2023/06/03 05:08:19;;;;;;;2.67;1.45;;;;;;;9.27;50.82;102112.59;5063585;28;20052;-57
2023/06/03 05:10:46;;;;;;;11.55;1.75;;;;;;;9.33;50.98;102102.84;5061815;28;20128;-56
2023/06/03 05:13:13;;;;;;;3.05;1.08;;;;;;;9.32;50.54;102095.81;5065446;28;20048;-57
2023/06/03 05:15:40;;;;;;;5.00;1.38;;;;;;;9.32;50.90;102101.09;5067682;28;20067;-57
2023/06/03 05:18:07;;;;;;;5.57;1.55;;;;;;;9.43;50.85;102102.63;5071322;28;20075;-57
2023/06/03 05:20:34;;;;;;;4.20;1.42;;;;;;;9.52;50.44;102098.03;5068227;28;20068;-57
2023/06/03 05:23:00;;;;;;;9.25;2.38;;;;;;;9.57;50.51;102102.38;5062669;28;20076;-57
2023/06/03 05:25:27;;;;;;;5.05;1.45;;;;;;;9.60;50.37;102097.91;5063266;28;20048;-57
2023/06/03 05:27:54;;;;;;;4.43;1.88;;;;;;;9.62;49.97;102097.88;5064986;28;20047;-57
2023/06/03 05:30:30;;;;;;;3.05;1.40;;;;;;;9.72;49.99;102107.34;5066934;28;20057;-57
2023/06/03 05:32:56;;;;;;;3.78;1.63;;;;;;;9.72;49.81;102105.56;5065012;28;20131;-57
2023/06/03 05:35:23;;;;;;;4.90;1.38;;;;;;;9.85;49.48;102110.59;5067807;28;20137;-57
2023/06/03 05:37:50;;;;;;;8.90;1.58;;;;;;;9.95;49.14;102106.84;5063637;28;20068;-57
2023/06/03 05:40:16;;;;;;;2.33;1.00;;;;;;;9.94;48.99;102105.13;5060800;28;20060;-56
2023/06/03 05:42:47;;;;;;;10.30;1.60;;;;;;;10.02;48.13;102103.19;5063824;28;20418;-56
2023/06/03 05:45:14;;;;;;;5.07;1.70;;;;;;;10.05;48.57;102097.84;5062922;28;20101;-56
2023/06/03 05:47:40;;;;;;;3.28;1.83;;;;;;;10.11;48.65;102092.41;5045982;28;20100;-57
2023/06/03 05:50:07;;;;;;;5.38;1.42;;;;;;;10.15;47.81;102097.63;5062287;28;20040;-57
2023/06/03 05:52:34;;;;;;;7.75;2.13;;;;;;;10.17;48.50;102101.09;5068998;28;20108;-57
2023/06/03 05:55:00;;;;;;;9.85;1.98;;;;;;;10.28;47.83;102104.38;5074294;28;20057;-57
2023/06/03 05:57:27;;;;;;;3.60;1.60;;;;;;;10.33;47.39;102105.19;5067690;28;20045;-56
2023/06/03 05:59:53;;;;;;;5.38;1.67;;;;;;;10.35;47.58;102094.53;5068726;28;20097;-56
2023/06/03 06:02:20;;;;;;;3.92;1.63;;;;;;;10.45;47.53;102102.25;5069615;28;20044;-56
2023/06/03 06:04:47;;;;;;;5.47;1.60;;;;;;;10.41;47.48;102090.03;5062586;28;20074;-57
2023/06/03 06:07:14;;;;;;;7.07;1.92;;;;;;;10.60;47.09;102101.00;5066402;28;20135;-56
2023/06/03 06:09:40;;;;;;;3.92;1.48;;;;;;;10.72;46.79;102105.13;5067937;28;20448;-56
2023/06/03 06:12:07;;;;;;;6.22;1.77;;;;;;;10.74;47.17;102092.75;5064829;28;20057;-57
2023/06/03 06:14:34;;;;;;;3.15;1.33;;;;;;;10.91;46.87;102094.09;5064729;28;20163;-58
2023/06/03 06:17:00;;;;;;;5.20;1.27;;;;;;;10.97;46.13;102099.22;5065849;28;20052;-57
2023/06/03 06:19:27;;;;;;;6.00;1.55;;;;;;;11.00;45.93;102099.13;5058625;28;20052;-56
2023/06/03 06:21:53;;;;;;;4.68;1.35;;;;;;;11.08;46.09;102091.00;5065430;28;20044;-56
2023/06/03 06:24:20;;;;;;;2.78;1.30;;;;;;;11.09;46.54;102093.59;5081799;28;20057;-56
2023/06/03 06:26:51;;;;;;;3.33;1.38;;;;;;;11.20;46.32;102091.53;5067445;28;20129;-56
2023/06/03 06:29:17;;;;;;;4.22;1.27;;;;;;;11.37;45.40;102098.16;5063331;28;20056;-56
2023/06/03 06:31:44;;;;;;;5.20;1.95;;;;;;;11.45;45.70;102101.44;5065884;28;20857;-57
2023/06/03 06:34:16;;;;;;;4.45;1.25;;;;;;;11.55;45.47;102105.56;5067560;28;20048;-56
2023/06/03 06:36:49;;;;;;;7.55;1.27;;;;;;;11.76;44.37;102100.59;5067443;28;20044;-56
2023/06/03 06:39:33;;;;;;;5.53;2.10;;;;;;;11.85;44.20;102092.38;5064699;28;20051;-56
2023/06/03 06:42:10;;;;;;;4.10;1.92;;;;;;;11.94;43.75;102093.91;5067717;28;20053;-56
2023/06/03 06:44:46;;;;;;;4.93;1.40;;;;;;;12.04;43.55;102099.81;5063497;28;20048;-56
2023/06/03 06:47:20;;;;;;;6.90;1.85;;;;;;;12.00;43.76;102098.13;5069348;28;20044;-57
2023/06/03 06:49:48;;;;;;;7.47;1.98;;;;;;;12.06;44.57;102098.84;5081531;28;20058;-56
2023/06/03 06:52:15;;;;;;;6.93;1.60;;;;;;;12.21;43.49;102100.16;5066638;28;20117;-57
2023/06/03 06:54:42;;;;;;;4.00;1.35;;;;;;;12.26;43.22;102100.88;5071167;28;20474;-56
2023/06/03 06:57:09;;;;;;;4.90;1.17;;;;;;;12.35;42.90;102097.06;5065505;28;20068;-58
2023/06/03 06:59:36;;;;;;;6.45;1.92;;;;;;;12.49;42.45;102096.63;5061175;28;20066;-56
2023/06/03 07:02:02;;;;;;;5.63;1.50;;;;;;;12.56;42.06;102090.19;5057672;28;20073;-58
2023/06/03 07:04:29;;;;;;;3.22;1.20;;;;;;;12.70;41.55;102099.47;5063080;28;20049;-56
2023/06/03 07:06:55;;;;;;;4.88;1.52;;;;;;;12.89;41.98;102105.06;5061851;28;20045;-57
2023/06/03 07:09:22;;;;;;;5.47;1.50;;;;;;;13.02;41.48;102096.59;5066330;28;20052;-55
2023/06/03 07:11:48;;;;;;;3.08;1.33;;;;;;;13.10;40.54;102093.69;5059279;28;20047;-57
2023/06/03 07:14:15;;;;;;;1.98;1.25;;;;;;;13.27;40.36;102095.75;5060837;28;20106;-57
2023/06/03 07:16:42;;;;;;;4.15;1.65;;;;;;;13.38;40.17;102087.44;5066664;28;20130;-56
2023/06/03 07:19:09;;;;;;;5.43;1.67;;;;;;;13.46;40.33;102081.84;5059878;28;20461;-56
2023/06/03 07:21:35;;;;;;;4.20;1.70;;;;;;;13.59;39.73;102091.09;5064705;28;20110;-56
2023/06/03 07:24:03;;;;;;;9.73;1.63;;;;;;;13.59;38.59;102085.78;5065318;28;20044;-56
2023/06/03 07:26:33;;;;;;;8.57;1.98;;;;;;;13.80;38.13;102094.75;5068351;28;20085;-56
2023/06/03 07:29:00;;;;;;;8.50;1.50;;;;;;;14.07;37.65;102091.94;5066311;28;20951;-56
2023/06/03 07:31:30;;;;;;;3.88;1.10;;;;;;;14.10;37.75;102090.03;5068039;28;20445;-56
2023/06/03 07:33:57;;;;;;;5.65;1.60;;;;;;;14.09;37.64;102090.09;5065239;28;20064;-56
2023/06/03 07:36:26;;;;;;;3.63;1.35;;;;;;;14.12;37.37;102096.16;5066230;28;20075;-55
2023/06/03 07:38:57;;;;;;;3.28;1.08;;;;;;;14.26;37.77;102087.63;5064434;28;20346;-57
2023/06/03 07:41:36;;;;;;;4.57;1.30;;;;;;;14.46;37.47;102093.94;5068834;28;20637;-56
2023/06/03 07:44:09;;;;;;;10.02;1.33;;;;;;;14.55;36.56;102098.00;5066788;28;20045;-57
2023/06/03 07:46:40;;;;;;;3.90;1.75;;;;;;;14.58;36.38;102081.94;5070220;28;20609;-57
2023/06/03 07:49:12;;;;;;;7.13;1.50;;;;;;;14.57;36.22;102085.53;5063200;28;20163;-56
2023/06/03 07:51:50;;;;;;;5.47;1.20;;;;;;;14.68;36.81;102088.66;5066287;28;20053;-56
2023/06/03 07:54:18;;;;;;;5.20;1.85;;;;;;;14.74;35.69;102091.03;5065060;28;20053;-57
2023/06/03 07:56:45;;;;;;;7.25;1.80;;;;;;;14.79;35.27;102090.84;5066197;28;20457;-57
2023/06/03 07:59:14;;;;;;;4.80;2.03;;;;;;;14.89;35.32;102086.00;5066549;28;20048;-56
2023/06/03 08:01:42;;;;;;;4.22;1.50;;;;;;;15.05;35.46;102095.06;5062757;28;20642;-57
2023/06/03 08:04:31;;;;;;;13.13;1.60;;;;;;;15.09;34.75;102087.78;5063379;28;20131;-56
2023/06/03 08:07:00;;;;;;;9.90;1.27;;;;;;;15.25;34.66;102088.84;5063942;28;20143;-56
2023/06/03 08:09:34;;;;;;;6.72;1.65;;;;;;;15.42;33.92;102086.31;5079326;28;20390;-57
2023/06/03 08:12:03;;;;;;;8.80;1.10;;;;;;;15.48;34.21;102085.19;5062902;28;20049;-56
2023/06/03 08:14:33;;;;;;;3.72;1.42;;;;;;;15.42;34.14;102085.47;5060035;28;20044;-56
2023/06/03 08:17:10;;;;;;;2.70;1.03;;;;;;;15.75;34.52;102087.50;5063708;28;20049;-56
2023/06/03 08:19:37;;;;;;;3.90;1.30;;;;;;;15.87;34.29;102091.44;5063100;28;20299;-57
2023/06/03 08:22:21;;;;;;;6.40;1.70;;;;;;;15.83;34.16;102085.38;5066812;28;20143;-57
2023/06/03 08:24:48;;;;;;;2.88;1.38;;;;;;;15.80;34.27;102090.00;5060296;28;20381;-56
2023/06/03 08:27:14;;;;;;;7.03;1.05;;;;;;;15.77;33.83;102091.00;5062946;28;20048;-56
2023/06/03 08:29:41;;;;;;;11.45;1.30;;;;;;;15.87;34.13;102092.31;5077352;28;20055;-56
2023/06/03 08:32:08;;;;;;;3.63;1.40;;;;;;;16.02;34.04;102084.50;5066010;28;20380;-55
2023/06/03 08:34:36;;;;;;;10.75;1.05;;;;;;;16.05;33.76;102100.38;5065146;28;20059;-58
2023/06/03 08:37:03;;;;;;;3.13;1.17;;;;;;;16.18;33.67;102092.66;5079818;28;20815;-56
2023/06/03 08:39:30;;;;;;;3.17;0.90;;;;;;;16.24;33.65;102085.22;5064080;28;20456;-56
2023/06/03 08:42:05;;;;;;;6.20;1.48;;;;;;;16.23;33.12;102091.50;5066084;28;20070;-55
2023/06/03 08:44:41;;;;;;;10.00;1.45;;;;;;;16.28;32.98;102086.81;5061747;28;20563;-56
2023/06/03 08:47:16;;;;;;;2.83;1.13;;;;;;;16.09;33.03;102088.63;5063597;28;20370;-56
2023/06/03 08:50:10;;;;;;;8.30;2.10;;;;;;;16.31;33.21;102086.66;5060689;28;20045;-56
2023/06/03 08:52:38;;;;;;;7.38;1.48;;;;;;;16.52;33.16;102095.41;5060363;28;20110;-56
2023/06/03 08:55:06;;;;;;;6.35;1.70;;;;;;;16.66;31.75;102092.06;5061536;28;20705;-55
2023/06/03 08:57:38;;;;;;;2.17;1.05;;;;;;;16.57;32.51;102089.84;5062350;28;20095;-56
2023/06/03 09:00:06;;;;;;;6.07;0.98;;;;;;;16.91;33.04;102092.66;5067607;28;20072;-56
2023/06/03 09:02:34;;;;;;;6.57;1.08;;;;;;;17.01;32.25;102088.56;5070691;28;20456;-56
2023/06/03 09:05:01;;;;;;;3.33;1.13;;;;;;;16.84;32.20;102081.41;5077125;28;20227;-55
2023/06/03 09:07:30;;;;;;;3.42;1.13;;;;;;;16.77;31.85;102077.28;5073911;28;20051;-55
2023/06/03 09:09:58;;;;;;;7.20;1.40;;;;;;;16.59;31.76;102073.75;5079549;28;20045;-55
2023/06/03 09:12:26;;;;;;;3.90;1.17;;;;;;;16.48;32.02;102066.28;5069636;28;20094;-56
2023/06/03 09:14:56;;;;;;;3.88;1.00;;;;;;;16.75;32.01;102072.03;5085636;28;20048;-56
2023/06/03 09:17:27;;;;;;;7.90;1.40;;;;;;;16.92;31.24;102071.22;5080852;28;20056;-56
2023/06/03 09:19:54;;;;;;;3.28;1.35;;;;;;;17.13;31.02;102068.34;5086571;28;20044;-56
2023/06/03 09:22:23;;;;;;;5.28;1.05;;;;;;;17.11;31.01;102070.25;5062572;28;20110;-56
2023/06/03 09:24:49;;;;;;;6.40;1.45;;;;;;;17.22;30.90;102067.88;5066580;28;20044;-56
2023/06/03 09:27:16;;;;;;;4.90;1.42;;;;;;;17.16;30.78;102057.53;5071158;28;20607;-56
2023/06/03 09:29:43;;;;;;;2.95;1.00;;;;;;;17.40;31.47;102061.56;5070329;28;20044;-56
2023/06/03 09:32:09;;;;;;;2.70;0.80;;;;;;;17.72;31.09;102056.28;5069112;28;20045;-56
2023/06/03 09:34:37;;;;;;;7.90;1.48;;;;;;;17.87;30.30;102054.59;5064005;28;20453;-56
2023/06/03 09:37:10;;;;;;;8.00;1.75;;;;;;;18.10;28.94;102053.28;5073182;28;20048;-55
2023/06/03 09:39:37;;;;;;;3.63;0.90;;;;;;;17.96;27.23;102053.19;5070407;28;20049;-55
2023/06/03 09:42:05;;;;;;;5.35;0.95;;;;;;;17.82;25.85;102053.06;5069076;28;20131;-55
2023/06/03 09:44:49;;;;;;;5.63;1.08;;;;;;;18.18;27.13;102058.22;5067046;28;20048;-55
2023/06/03 09:47:16;;;;;;;3.92;1.08;;;;;;;18.25;27.36;102053.38;5064889;28;20450;-55
2023/06/03 09:50:06;;;;;;;6.40;0.80;;;;;;;18.24;26.82;102051.63;5061128;28;20438;-55
2023/06/03 09:52:34;;;;;;;6.05;1.10;;;;;;;17.84;27.76;102053.88;5067617;28;20052;-55
2023/06/03 09:55:08;;;;;;;3.17;1.10;;;;;;;17.95;27.89;102051.50;5075829;28;20436;-55
2023/06/03 09:57:36;;;;;;;6.88;1.40;;;;;;;18.03;26.70;102054.59;5073992;28;20122;-56
2023/06/03 10:00:12;;;;;;;6.93;1.08;;;;;;;18.28;26.16;102058.56;5071574;28;20139;-55
2023/06/03 10:02:42;;;;;;;7.15;1.52;;;;;;;18.33;26.61;102056.47;5073449;28;20127;-56
2023/06/03 10:05:29;;;;;;;2.58;1.05;;;;;;;18.40;26.71;102052.47;5088723;28;20419;-56
2023/06/03 10:07:57;;;;;;;2.05;0.65;;;;;;;18.64;25.63;102049.31;5080816;28;20050;-56
2023/06/03 10:10:27;;;;;;;3.15;0.88;;;;;;;18.35;26.18;102049.19;5082580;28;20446;-56
2023/06/03 10:12:54;;;;;;;4.72;1.00;;;;;;;18.77;26.58;102050.31;5073638;28;20358;-56
2023/06/03 10:15:38;;;;;;;8.13;1.60;;;;;;;19.16;27.08;102046.19;5072681;28;20751;-55
2023/06/03 10:18:05;;;;;;;3.83;1.17;;;;;;;19.16;26.97;102056.91;5073204;28;20059;-55
2023/06/03 10:20:40;;;;;;;7.22;1.20;;;;;;;18.55;27.34;102045.34;5071940;28;20562;-55
2023/06/03 10:23:09;;;;;;;4.07;1.48;;;;;;;18.47;27.73;102036.91;5073211;28;20044;-56
2023/06/03 10:25:45;;;;;;;4.60;1.00;;;;;;;18.51;27.54;102044.66;5073835;28;20139;-56
2023/06/03 10:28:12;;;;;;;3.00;1.17;;;;;;;18.48;27.50;102034.16;5072288;28;20119;-56
2023/06/03 10:30:40;;;;;;;3.50;1.10;;;;;;;18.34;27.74;102031.41;5072966;28;20048;-57
2023/06/03 10:33:09;;;;;;;5.07;1.10;;;;;;;18.38;27.66;102032.97;5073981;28;20044;-56
2023/06/03 10:35:37;;;;;;;2.97;1.30;;;;;;;18.67;27.25;102038.44;5073694;28;20056;-58
2023/06/03 10:38:07;;;;;;;5.75;1.20;;;;;;;19.12;27.38;102039.28;5071146;28;20465;-56
2023/06/03 10:40:35;;;;;;;1.55;0.88;;;;;;;19.23;26.14;102034.13;5074910;28;20044;-56
2023/06/03 10:43:02;;;;;;;2.97;0.80;;;;;;;19.06;26.41;102029.81;5072555;28;20055;-56
2023/06/03 10:45:29;;;;;;;7.47;1.63;;;;;;;19.51;25.76;102032.41;5073264;28;20048;-56
2023/06/03 10:48:01;;;;;;;6.22;0.90;;;;;;;20.24;25.09;102023.25;5073117;28;20128;-56
2023/06/03 10:51:04;;;;;;;3.47;1.08;;;;;;;21.00;23.88;102007.41;5073835;28;20662;-57
2023/06/03 10:53:49;;;;;;;4.57;0.95;;;;;;;21.60;22.95;102003.19;5072768;28;20041;-56
2023/06/03 10:57:03;;;;;;;6.22;1.33;;;;;;;22.65;21.78;102017.78;5072634;28;20677;-56
2023/06/03 10:59:40;;;;;;;6.10;1.10;;;;;;;23.55;20.79;102005.38;5071811;28;20140;-56
2023/06/03 11:02:07;;;;;;;5.55;1.02;;;;;;;24.42;19.77;102010.78;5071996;28;20128;-57
2023/06/03 11:04:36;;;;;;;7.43;1.05;;;;;;;24.62;19.45;102011.84;5072671;28;20044;-56
2023/06/03 11:07:05;;;;;;;6.50;1.00;;;;;;;25.04;19.07;102006.41;5072624;28;20052;-56
2023/06/03 11:09:35;;;;;;;2.38;0.82;;;;;;;24.94;18.81;102010.03;5073423;28;20059;-57
2023/06/03 11:12:14;;;;;;;2.75;0.90;;;;;;;23.79;19.70;102002.53;5071463;28;20135;-57
2023/06/03 11:14:42;;;;;;;4.85;0.80;;;;;;;25.28;18.88;102013.38;5072666;28;20114;-57
2023/06/03 11:17:11;;;;;;;4.60;0.93;;;;;;;26.33;18.26;102010.16;5072595;28;20084;-58
2023/06/03 11:19:51;;;;;;;4.50;0.77;;;;;;;26.70;17.37;102000.47;5071380;28;20437;-58
2023/06/03 11:22:27;;;;;;;1.98;0.70;;;;;;;26.33;17.53;102003.91;5058129;28;20052;-57
2023/06/03 11:24:54;;;;;;;2.75;0.82;;;;;;;26.65;17.50;101998.19;5072467;28;20044;-56
2023/06/03 11:27:23;;;;;;;4.40;0.77;;;;;;;26.06;17.65;102008.19;5072542;28;20088;-57
2023/06/03 11:29:50;;;;;;;3.45;0.70;;;;;;;26.99;17.25;101994.09;5070715;28;20424;-58
2023/06/03 11:32:28;;;;;;;4.00;1.50;;;;;;;26.61;17.99;102002.16;5072391;28;20055;-57
2023/06/03 11:35:04;;;;;;;11.27;1.33;;;;;;;26.89;17.11;102002.25;5072478;28;20040;-56
2023/06/03 11:37:49;;;;;;;4.82;0.95;;;;;;;27.02;17.60;101999.22;5071490;28;20206;-57
2023/06/03 11:40:18;;;;;;;8.50;1.40;;;;;;;27.38;16.75;101997.56;5087609;28;20059;-57